createdAt,value
2022-09-26T00:00:24.888Z,32.68648
2022-09-26T00:05:26.520Z,32.76485
2022-09-26T00:10:28.217Z,34.30674
2022-09-26T00:15:29.841Z,36.6539
2022-09-26T00:20:31.443Z,37.55166
2022-09-26T00:25:33.067Z,37.58165
2022-09-26T00:30:34.795Z,36.42219
2022-09-26T00:35:36.443Z,36.70954
2022-09-26T00:40:38.061Z,38.39394
2022-09-26T00:45:39.810Z,39.1192
2022-09-26T00:50:41.494Z,40.00437
2022-09-26T00:55:43.107Z,39.63417
2022-09-26T01:00:44.711Z,40.42629
2022-09-26T01:05:46.337Z,41.11305
2022-09-26T01:10:48.071Z,40.87065
2022-09-26T01:15:49.644Z,41.68304
2022-09-26T01:20:51.308Z,42.22977
2022-09-26T01:25:52.925Z,41.59779
2022-09-26T01:30:54.597Z,43.33503
2022-09-26T01:35:56.237Z,44.25885
2022-09-26T01:40:57.868Z,44.22138
2022-09-26T01:45:59.602Z,43.41119
2022-09-26T01:51:01.277Z,44.51604
2022-09-26T01:56:02.908Z,46.16119
2022-09-26T02:01:04.592Z,44.98472
2022-09-26T02:06:06.277Z,45.94743
2022-09-26T02:11:07.863Z,46.46336
2022-09-26T02:16:09.509Z,45.51682
2022-09-26T02:21:11.162Z,48.85605
2022-09-26T02:26:12.816Z,47.65304
2022-09-26T02:31:14.671Z,46.86839
2022-09-26T02:36:16.288Z,46.57773
2022-09-26T02:41:18.258Z,45.83522
2022-09-26T02:46:20.003Z,46.94591
2022-09-26T02:51:21.656Z,48.316
2022-09-26T02:56:23.271Z,47.59817
2022-09-26T03:01:24.959Z,48.40253
2022-09-26T03:06:26.648Z,50.01683
2022-09-26T03:11:28.245Z,50.38165
2022-09-26T03:16:29.868Z,48.57793
2022-09-26T03:21:36.186Z,48.8883
2022-09-26T03:26:38.865Z,49.25112
2022-09-26T03:31:40.607Z,51.08811
2022-09-26T03:36:42.311Z,47.93327
2022-09-26T03:41:44.255Z,48.72597
2022-09-26T03:46:45.830Z,49.39453
2022-09-26T03:51:47.453Z,51.703
2022-09-26T03:56:49.068Z,49.68912
2022-09-26T04:01:50.708Z,52.09853
2022-09-26T04:06:52.342Z,54.08313
2022-09-26T04:11:53.934Z,53.50308
2022-09-26T04:16:55.562Z,53.44292
2022-09-26T04:21:57.242Z,54.80409
2022-09-26T04:26:58.815Z,54.1325
2022-09-26T04:32:00.787Z,52.07314
2022-09-26T04:37:02.505Z,54.87947
2022-09-26T04:42:04.147Z,55.14507
2022-09-26T04:47:05.816Z,54.79326
2022-09-26T04:52:07.460Z,57.89329
2022-09-26T04:57:09.217Z,55.49758
2022-09-26T05:02:11.006Z,53.68877
2022-09-26T05:07:12.686Z,53.8867
2022-09-26T05:12:14.282Z,54.47538
2022-09-26T05:17:16.123Z,56.89195
2022-09-26T05:22:17.725Z,53.49844
2022-09-26T05:27:19.420Z,56.51332
2022-09-26T05:32:21.058Z,53.31114
2022-09-26T05:37:22.673Z,55.11108
2022-09-26T05:42:24.261Z,57.0169
2022-09-26T05:47:25.894Z,56.46167
2022-09-26T05:52:27.478Z,57.66656
2022-09-26T05:57:29.098Z,54.50985
2022-09-26T06:02:30.739Z,60.00149
2022-09-26T06:07:32.349Z,58.36673
2022-09-26T06:12:33.958Z,57.59878
2022-09-26T06:17:35.546Z,58.04745
2022-09-26T06:22:37.184Z,57.98447
2022-09-26T06:27:38.786Z,57.21767
2022-09-26T06:32:40.413Z,59.58347
2022-09-26T06:37:42.057Z,55.97118
2022-09-26T06:42:43.626Z,58.57611
2022-09-26T06:47:45.248Z,60.70196
2022-09-26T06:52:46.844Z,59.39754
2022-09-26T06:57:48.437Z,59.70461
2022-09-26T07:02:50.064Z,58.21723
2022-09-26T07:07:51.665Z,57.4591
2022-09-26T07:12:53.262Z,60.79603
2022-09-26T07:17:54.858Z,61.51545
2022-09-26T07:22:56.460Z,60.60463
2022-09-26T07:27:58.095Z,60.8815
2022-09-26T07:32:59.709Z,58.66149
2022-09-26T07:38:01.339Z,61.10756
2022-09-26T07:43:19.637Z,61.52712
2022-09-26T07:48:21.999Z,60.00982
2022-09-26T07:53:23.607Z,61.29054
2022-09-26T07:58:25.306Z,59.69774
2022-09-26T08:03:26.902Z,60.65727
2022-09-26T08:08:28.544Z,64.89753
2022-09-26T08:13:30.151Z,59.9912
2022-09-26T08:18:31.794Z,64.48731
2022-09-26T08:23:33.415Z,62.58355
2022-09-26T08:28:34.996Z,61.77429
2022-09-26T08:33:36.609Z,62.04692
2022-09-26T08:38:38.181Z,65.05525
2022-09-26T08:43:39.790Z,62.38053
2022-09-26T08:48:41.398Z,60.78381
2022-09-26T08:53:42.975Z,61.25624
2022-09-26T08:58:44.549Z,59.00921
2022-09-26T09:03:46.165Z,58.62985
2022-09-26T09:08:47.779Z,66.22451
2022-09-26T09:13:49.401Z,63.45483
2022-09-26T09:18:51.028Z,63.07999
2022-09-26T09:23:52.668Z,63.87169
2022-09-26T09:28:54.308Z,65.78867
2022-09-26T09:33:55.893Z,62.3447
2022-09-26T09:38:57.533Z,62.94066
2022-09-26T09:43:59.134Z,61.42759
2022-09-26T09:49:00.715Z,62.38632
2022-09-26T09:54:02.291Z,64.76265
2022-09-26T09:59:03.912Z,61.6082
2022-09-26T10:04:05.766Z,63.88064
2022-09-26T10:09:36.480Z,64.83708
2022-09-26T10:14:41.471Z,64.63281
2022-09-26T10:19:43.029Z,64.79974
2022-09-26T10:24:44.772Z,65.12442
2022-09-26T10:29:46.370Z,65.84568
2022-09-26T10:34:48.129Z,63.26743
2022-09-26T10:39:49.754Z,66.6381
2022-09-26T10:44:51.319Z,66.00251
2022-09-26T10:49:52.925Z,64.60922
2022-09-26T10:54:54.663Z,65.91361
2022-09-26T10:59:56.273Z,63.9171
2022-09-26T11:04:57.892Z,62.67667
2022-09-26T11:09:59.473Z,65.27237
2022-09-26T11:15:01.095Z,63.40661
2022-09-26T11:20:03.523Z,66.57871
2022-09-26T11:25:05.266Z,62.67912
2022-09-26T11:30:06.835Z,67.01245
2022-09-26T11:35:08.451Z,65.12949
2022-09-26T11:40:10.237Z,63.39504
2022-09-26T11:45:11.914Z,67.32574
2022-09-26T11:50:13.665Z,67.51106
2022-09-26T11:55:15.296Z,68.24673
2022-09-26T12:00:16.912Z,63.74284
2022-09-26T12:05:18.510Z,65.57003
2022-09-26T12:10:20.108Z,69.15184
2022-09-26T12:15:21.703Z,66.62793
2022-09-26T12:20:23.312Z,67.71374
2022-09-26T12:25:24.929Z,66.93132
2022-09-26T12:30:26.605Z,65.11613
2022-09-26T12:35:28.196Z,72.62303
2022-09-26T12:40:29.844Z,66.26225
2022-09-26T12:45:31.577Z,68.58106
2022-09-26T12:50:33.196Z,67.28611
2022-09-26T12:55:34.888Z,66.11135
2022-09-26T13:00:36.519Z,65.3046
2022-09-26T13:05:38.128Z,67.39003
2022-09-26T13:10:39.745Z,69.24929
2022-09-26T13:15:41.395Z,66.4389
2022-09-26T13:20:43.021Z,65.20051
2022-09-26T13:25:49.264Z,66.55174
2022-09-26T13:30:51.468Z,66.99447
2022-09-26T13:35:53.145Z,68.45025
2022-09-26T13:40:54.825Z,68.36023
2022-09-26T13:45:56.556Z,70.98961
2022-09-26T13:50:58.251Z,66.4357
2022-09-26T13:55:59.901Z,68.03703
2022-09-26T14:01:01.548Z,68.60836
2022-09-26T14:06:03.171Z,68.35618
2022-09-26T14:11:04.822Z,67.12396
2022-09-26T14:16:06.520Z,68.38602
2022-09-26T14:21:08.210Z,68.61977
2022-09-26T14:26:09.820Z,67.37317
2022-09-26T14:31:11.575Z,66.51559
2022-09-26T14:36:13.241Z,66.64329
2022-09-26T14:41:14.874Z,67.35924
2022-09-26T14:46:16.522Z,60.34245
2022-09-26T14:51:18.185Z,66.64813
2022-09-26T14:56:19.793Z,68.15461
2022-09-26T15:01:21.540Z,67.11763
2022-09-26T15:06:23.206Z,66.71577
2022-09-26T15:11:24.797Z,67.20315
2022-09-26T15:16:26.461Z,66.52134
2022-09-26T15:21:28.185Z,66.92699
2022-09-26T15:26:29.809Z,67.02113
2022-09-26T15:31:31.561Z,64.22799
2022-09-26T15:36:33.250Z,60.54082
2022-09-26T15:41:34.894Z,63.64409
2022-09-26T15:46:36.647Z,58.63097
2022-09-26T15:51:38.365Z,63.34416
2022-09-26T15:56:40.053Z,61.38737
2022-09-26T16:01:41.760Z,60.81178
2022-09-26T16:06:43.398Z,55.03236
2022-09-26T16:11:45.045Z,54.65644
2022-09-26T16:16:46.662Z,52.85667
2022-09-26T16:21:48.281Z,51.27986
2022-09-26T16:26:49.870Z,53.60086
2022-09-26T16:31:51.468Z,50.20288
2022-09-26T16:36:53.125Z,52.25266
2022-09-26T16:42:01.295Z,47.44731
2022-09-26T16:47:04.368Z,48.49302
2022-09-26T16:52:05.950Z,46.76451
2022-09-26T16:57:07.579Z,47.07713
2022-09-26T17:02:09.195Z,45.7716
2022-09-26T17:07:10.778Z,45.89312
2022-09-26T17:12:12.401Z,46.40281
2022-09-26T17:17:14.030Z,43.44587
2022-09-26T17:22:15.662Z,42.67444
2022-09-26T17:27:17.283Z,41.8756
2022-09-26T17:32:18.903Z,39.9286
2022-09-26T17:37:20.546Z,39.0824
2022-09-26T17:42:22.177Z,37.14109
2022-09-26T17:47:23.795Z,36.51975
2022-09-26T17:52:25.411Z,34.46245
2022-09-26T17:57:27.039Z,34.26883
2022-09-26T18:02:28.665Z,33.5555
2022-09-26T18:07:30.371Z,34.92698
2022-09-26T18:12:32.028Z,34.30132
2022-09-26T18:17:33.614Z,34.29532
2022-09-26T18:22:35.251Z,36.97188
2022-09-26T18:27:36.950Z,36.12235
2022-09-26T18:32:38.539Z,35.97578
2022-09-26T18:37:40.095Z,34.69425
2022-09-26T18:42:41.726Z,36.09223
2022-09-26T18:47:43.380Z,37.92356
2022-09-26T18:52:45.014Z,35.45325
2022-09-26T18:57:46.711Z,36.09482
2022-09-26T19:02:48.515Z,34.48274
2022-09-26T19:07:50.133Z,35.37236
2022-09-26T19:12:51.775Z,32.32207
2022-09-26T19:17:53.380Z,30.621
2022-09-26T19:22:54.965Z,31.67619
2022-09-26T19:27:56.553Z,31.97678
2022-09-26T19:32:58.156Z,33.07754
2022-09-26T19:37:59.771Z,31.5696
2022-09-26T19:43:01.363Z,32.83567
2022-09-26T19:48:03.051Z,29.06763
2022-09-26T19:53:04.708Z,29.60283
2022-09-26T19:58:06.303Z,29.98302
2022-09-26T20:03:07.981Z,28.55534
2022-09-26T20:08:09.690Z,27.38225
2022-09-26T20:13:11.350Z,27.07124
2022-09-26T20:18:12.940Z,28.78378
2022-09-26T20:23:14.570Z,27.12228
2022-09-26T20:28:16.186Z,26.93559
2022-09-26T20:33:17.775Z,28.47481
2022-09-26T20:38:19.365Z,26.29567
2022-09-26T20:43:20.967Z,27.1133
2022-09-26T20:48:22.585Z,25.93113
2022-09-26T20:53:24.148Z,28.61749
2022-09-26T20:58:25.765Z,29.01615
2022-09-26T21:03:27.485Z,28.99287
2022-09-26T21:08:29.065Z,30.27802
2022-09-26T21:13:30.677Z,31.90923
2022-09-26T21:18:32.292Z,32.29659
2022-09-26T21:23:33.997Z,32.04533
2022-09-26T21:28:35.585Z,31.48857
2022-09-26T21:33:37.223Z,31.91606
2022-09-26T21:38:38.819Z,31.95745
2022-09-26T21:43:40.426Z,30.97305
2022-09-26T21:48:42.022Z,31.1362
2022-09-26T21:53:43.621Z,33.98559
2022-09-26T21:58:45.230Z,31.80249
2022-09-26T22:03:46.865Z,32.27813
2022-09-26T22:08:48.444Z,31.74991
2022-09-26T22:13:50.245Z,33.3059
2022-09-26T22:18:51.877Z,33.1087
2022-09-26T22:23:53.457Z,34.19139
2022-09-26T22:28:55.058Z,33.5885
2022-09-26T22:33:56.675Z,34.19937
2022-09-26T22:38:58.307Z,33.75245
2022-09-26T22:43:59.940Z,33.66308
2022-09-26T22:49:01.644Z,34.79621
2022-09-26T22:54:03.283Z,31.6397
2022-09-26T22:59:04.869Z,31.44459
2022-09-26T23:04:06.537Z,30.04011
2022-09-26T23:09:08.213Z,29.36894
2022-09-26T23:14:09.870Z,29.28835
2022-09-26T23:19:11.498Z,27.93726
2022-09-26T23:24:13.048Z,31.85609
2022-09-26T23:29:14.714Z,31.9055
2022-09-26T23:34:16.317Z,34.3996
2022-09-26T23:39:17.916Z,34.08982
2022-09-26T23:44:19.566Z,36.34275
2022-09-26T23:49:21.167Z,36.94932
2022-09-26T23:54:22.846Z,35.17914
2022-09-26T23:59:24.468Z,37.12361
